Weather observations for the past three days for
Roseau, Roseau Municipal Airport/Rudy Billberg Field
Metric (Imperial)
Date Time (cdt) Wind (kph) Vis. (km) Weather Sky Cond. Temperature (ºC) Relative Humidity Wind Chill (°C) Heat Index (°C) Pressure Precipitation (cm)
Air Dwpt 6 hour altimeter (cm) sea level (mb) 1 hr 3 hr 6 hr
Max. Min.
10 14:55 NE 13 16.09 Overcast OVC055 7.2 -6.1 39% 5 76.76 0.0
10 14:35 N 15 G 30 16.09 Overcast OVC055 8.4 -6.1 36% 6 76.76 0.0
10 14:15 N 22 G 30 16.09 Overcast OVC055 7.3 -6.1 38% 4 76.76 0.0
10 13:55 NE 13 G 28 16.09 Overcast OVC050 6.6 -6.6 39% 4 76.76 0.0
10 13:35 N 15 16.09 Overcast OVC055 7.1 -6.1 39% 5 76.76 0.0
10 13:15 N 20 G 33 16.09 Overcast OVC050 6.9 -6.1 39% 4 76.76 0.0
10 12:55 NE 17 G 33 16.09 Overcast OVC050 7 -6.5 7.2 -1.5 38% 4 76.73 0.0
10 12:35 N 19 G 28 16.09 Overcast OVC050 6.4 -6.7 39% 3 76.73 0.0
10 12:15 N 20 G 28 16.09 Overcast OVC050 6.3 -6.5 40% 3 76.73 0.0
10 11:55 NW 13 16.09 Mostly Cloudy BKN050 5.9 -7.1 39% 3 76.73 0.0
10 11:35 NW 11 14.48 Mostly Cloudy BKN050 5.6 -7.1 40% 3 76.73 0.0
10 11:15 N 9 G 31 14.48 Overcast OVC049 5.5 -6.8 41% 4 76.73 0.0
10 10:55 NE 20 16.09 Overcast OVC046 6.2 -6.7 39% 3 76.71 0.0
10 10:35 N 22 16.09 Overcast OVC045 5.7 -6.2 42% 2 76.71 0.0
10 10:15 N 17 14.48 Overcast OVC044 4.7 -6.4 45% 1 76.71 0.0
10 09:55 N 19 12.87 Overcast OVC042 4.5 -6.1 46% 1 76.71 0.0
10 09:35 N 20 14.48 Mostly Cloudy BKN041 BKN048 4.3 -6.1 47% 1 76.71 0.0
10 09:15 N 22 14.48 Mostly Cloudy FEW040 BKN048 4.6 -5.3 49% 1 76.68 0.0
10 08:55 N 13 12.87 Fair CLR 3.5 -3.8 59% 1 76.66 0.0
10 08:35 N 11 14.48 Fair CLR 3.1 -3.5 62% 0 76.66 0.0
10 08:15 N 13 14.48 Fair CLR 2.7 -3.3 65% -0 76.63 0.0
10 07:55 NW 17 14.48 Fair CLR 1.7 -3.3 70% -2 76.63 0.0
10 07:35 NW 17 14.48 Fair CLR 1 -3.3 73% -3 76.61 0.0
10 07:15 NW 11 16.09 A Few Clouds FEW048 -0.1 -3.1 80% -3 76.61 0.0
10 06:55 NW 11 14.48 A Few Clouds FEW047 -1.5 -3.7 0.4 -2.1 85% -5 76.56 0.0
10 06:35 NW 13 16.09 A Few Clouds FEW048 -1.7 -3.9 85% -6 76.56 0.0
10 06:15 NW 11 16.09 Mostly Cloudy BKN047 -1.2 -3.9 82% -5 76.53 0.0
10 05:55 NW 13 16.09 Overcast OVC047 -0.6 -3.5 81% -4 76.5 0.0
10 05:35 NW 15 16.09 Overcast OVC048 -0.9 -3.6 82% -5 76.48 0.0
10 05:15 NW 13 16.09 Mostly Cloudy BKN050 -1.6 -3.8 85% -6 76.48 0.0
10 04:55 NW 17 16.09 A Few Clouds FEW055 -1.8 -3.9 86% -7 76.45 0.0
10 04:35 NW 15 16.09 Mostly Cloudy BKN055 -1.2 -3.7 83% -5 76.45 0.0
10 04:15 NW 15 16.09 Overcast FEW033 OVC055 -0.4 -3.3 81% -4 76.43 0.0
10 03:55 NW 15 16.09 Overcast FEW032 OVC060 -0.4 -3.4 80% -4 76.4 0.0
10 03:35 NW 11 16.09 Overcast OVC060 -0.8 -3.6 82% -4 76.4 0.0
10 03:15 NW 11 16.09 Overcast OVC060 -0.9 -3.4 83% -4 76.38 0.0
10 02:55 NW 13 16.09 Overcast OVC060 -1.1 -3.5 84% -5 76.38 0.0
10 02:35 NW 13 16.09 Overcast OVC060 -0.7 -3.1 84% -4 76.35 0.0
10 02:15 NW 11 16.09 Mostly Cloudy BKN060 -0.5 -3.5 80% -4 76.35 0.0
10 01:55 NW 13 16.09 Fair CLR -1.5 -4 83% -5 76.35 0.0
10 01:35 NW 13 16.09 Fair CLR -1 -3.8 82% -5 76.33 0.0
10 01:15 NW 15 16.09 Fair CLR -0.1 -3.5 78% -4 76.33 0.0
10 00:55 NW 15 16.09 Fair CLR 0.7 -3.4 8 0.7 74% -3 76.3 0.0
10 00:35 N 19 16.09 Fair CLR 1.4 -3.2 72% -3 76.28 0.0
10 00:15 NW 17 16.09 Fair CLR 1.3 -2.2 78% -3 76.28 0.0
09 23:55 NW 11 16.09 Partly Cloudy SCT049 1.4 -1.1 84% -2 76.25 0.0
09 23:35 N 13 16.09 Mostly Cloudy BKN049 2.7 -0.4 80% -0 76.25 0.0
09 23:15 N 19 16.09 A Few Clouds FEW029 2.6 -0.4 81% -1 76.23 0.0
09 22:55 N 13 16.09 A Few Clouds FEW060 3 -0.5 78% 0 76.17 0.0
09 22:35 N 17 16.09 Mostly Cloudy BKN055 4.1 -0.3 73% 1 76.17 0.0
09 22:15 N 19 16.09 Mostly Cloudy BKN049 BKN100 4.6 -0.3 71% 1 76.15 0.0
09 21:55 N 24 16.09 Overcast SCT042 OVC055 5.7 -0.2 66% 2 76.12 0.0
09 21:35 N 22 14.48 Overcast BKN041 OVC050 5.9 -0.7 63% 2 76.12 0.0
09 21:15 N 20 16.09 Overcast OVC049 6.4 -1.2 59% 3 76.1 0.0
09 20:55 NW 13 16.09 Overcast SCT050 BKN060 OVC095 6.5 -1.1 59% 4 76.07 0.0
09 20:35 NW 17 14.48 Overcast FEW060 OVC090 6.8 -1.5 56% 4 76.05 0.0
09 20:15 NW 17 16.09 Overcast OVC085 7.2 -1.7 54% 5 76.05 0.0
09 19:55 N 20 14.48 Overcast FEW055 OVC090 7.4 -1.4 54% 4 76.02 0.0
09 19:35 NW 19 16.09 Overcast FEW048 SCT070 OVC095 7.6 -1.1 54% 5 76.02 0.0
09 19:15 N 26 8.05 Overcast with Haze FEW048 BKN080 BKN100 OVC130 7.9 -1.2 53% 4 76.02 0.0
09 18:35 N 22 12.87 Overcast OVC075 8.6 -1.6 49% 6 75.97 0.0
09 18:15 N 24 11.27 Overcast BKN070 OVC090 8.8 -1.7 48% 6 75.97 0.0
09 17:55 NW 28 14.48 Mostly Cloudy FEW050 BKN070 BKN085 9 -2.2 46% 6 75.97 0.0
09 17:35 N 31 14.48 Overcast SCT050 BKN070 BKN085 OVC130 8.9 -2.6 45% 5 75.95 0.0
09 17:15 N 33 14.48 Overcast and Breezy SCT055 BKN080 OVC130 9.5 -2.7 43% 6 75.95 0.0
09 16:55 NW 37 G 43 16.09 Overcast and Breezy FEW055 BKN080 OVC130 10.2 -3 40% 75.92 0.0
09 16:35 NW 22 14.48 Overcast SCT055 BKN080 OVC120 10 -2.8 41% 7 75.92 0.0
09 16:15 NW 31 16.09 Overcast BKN060 OVC080 10.2 -3.4 39% 75.92 0.0
09 15:55 NW 31 G 43 14.48 Overcast BKN060 OVC080 10.1 -3.6 38% 75.9 0.0
09 15:35 NW 31 14.48 Overcast OVC070 10.1 -3.6 38% 75.9 0.0
09 15:15 NW 33 G 39 14.48 Overcast and Breezy OVC065 10.2 -3.7 38% 75.9 0.0
09 14:55 NW 30 G 39 16.09 Overcast OVC060 10.1 -3.6 38% 75.87 0.0
09 14:35 NW 33 16.09 Overcast and Breezy OVC065 9.8 -4.1 38% 6 75.87 0.0
09 14:15 NW 37 G 46 14.48 Overcast and Breezy OVC055 9.3 -3.9 39% 6 75.87 0.0
09 13:55 NW 26 G 43 16.09 Overcast OVC055 9.7 -4.1 38% 7 75.87 0.0
09 13:35 NW 39 16.09 Overcast and Breezy OVC055 9.5 -4.1 38% 6 75.87 0.0
09 13:15 NW 26 G 39 16.09 Overcast OVC055 10.3 -3.6 38% 75.84 0.0
09 12:55 NW 30 G 46 14.48 Overcast OVC049 8.5 -4 9.5 1.9 41% 5 75.84 0.0
09 12:35 NW 28 G 41 16.09 Overcast BKN048 OVC060 8.9 -3.7 41% 6 75.84 0.0
09 12:15 NW 30 G 43 16.09 Overcast BKN047 OVC055 8.3 -3.8 43% 5 75.84 0.0
09 11:55 NW 33 G 39 16.09 Mostly Cloudy and Breezy BKN047 8.9 -3.5 42% 5 75.82 0.0
09 11:35 NW 22 G 39 16.09 Mostly Cloudy SCT045 BKN050 8.1 -3.7 43% 5 75.82 0.0
09 11:15 NW 26 G 44 14.48 Overcast OVC044 7.6 -3.6 45% 4 75.82 0.0
09 10:55 N 28 16.09 Mostly Cloudy BKN043 7.7 -3.8 44% 4 75.79 0.0
09 10:35 NW 30 G 41 16.09 Overcast OVC042 7.8 -3.7 44% 4 75.79 0.0
09 10:15 N 31 G 41 16.09 Overcast OVC041 6.9 -3.7 47% 3 75.77 0.0
09 09:55 N 31 16.09 Overcast OVC042 6.7 -3 50% 3 75.77 0.0
09 09:35 NW 33 G 44 16.09 Mostly Cloudy and Breezy BKN045 7.2 -3.7 46% 3 75.74 0.0
09 09:15 N 39 G 46 16.09 Mostly Cloudy and Breezy BKN045 6.8 -3.8 47% 2 75.74 0.0
09 08:55 NW 30 G 37 16.09 Partly Cloudy SCT046 5.8 -3.2 53% 1 75.72 0.0
09 08:35 NW 26 16.09 Fair CLR 5.9 -2.9 54% 2 75.72 0.0
09 08:15 NW 24 16.09 Partly Cloudy SCT050 4.9 -3.1 57% 1 75.69 0.0
09 07:55 NW 26 16.09 Partly Cloudy SCT050 4 -3.2 60% -0 75.67 0.0
09 07:35 NW 20 16.09 Partly Cloudy SCT050 3.3 -3 64% -1 75.64 0.0
09 07:15 NW 17 14.48 Overcast OVC050 2.2 -2.9 69% -2 75.64 0.0
09 06:55 NW 19 16.09 Overcast OVC050 1.6 -3.2 6.5 -1 71% -3 75.62 0.0
09 06:35 NW 17 16.09 Overcast OVC050 1.2 -3.3 72% -3 75.59 0.0
09 06:15 NW 13 14.48 Mostly Cloudy BKN050 0.5 -3.7 74% -3 75.57 0.0
09 05:55 NW 15 16.09 Fair CLR -1 -4.7 76% -5 75.57 0.0
09 05:35 NW 15 16.09 Fair CLR -0.3 -4.5 74% -4 75.54 0.0
09 05:15 NW 15 16.09 Fair CLR -0.1 -4.8 71% -4 75.51 0.0
09 04:55 NW 15 16.09 Fair CLR 0.5 -4.9 67% -3 75.49 0.0
09 04:35 NW 17 16.09 Fair CLR 0.9 -5 65% -3 75.49 0.0
09 04:15 NW 17 16.09 A Few Clouds FEW070 1.9 -4.9 61% -2 75.46 0.0
09 03:55 N 17 16.09 Overcast OVC065 3 -4.8 57% -1 75.44 0.0
09 03:35 NW 20 16.09 Mostly Cloudy BKN070 2.9 -5 56% -1 75.44 0.0
09 03:15 NW 17 16.09 Fair CLR 2 -5.2 59% -2 75.39 0.0
09 02:55 NW 17 16.09 Partly Cloudy SCT085 3 -5.2 55% -1 75.39 0.0
09 02:35 N 17 16.09 Partly Cloudy SCT090 3.2 -5.1 55% -0 75.39 0.0
09 02:15 N 22 16.09 Mostly Cloudy BKN095 4.1 -5.2 51% 0 75.39 0.0
09 01:55 N 22 16.09 Overcast OVC095 5.2 -4.7 49% 1 75.39 0.0
09 01:35 N 17 16.09 Overcast OVC095 5.4 -4.2 50% 2 75.36 0.0
09 01:15 N 20 16.09 Overcast OVC090 5.9 -4.5 48% 3 75.34 0.0
09 00:55 N 22 16.09 Overcast OVC085 6.6 -4.6 13.6 6.6 45% 3 75.31 0.0
09 00:35 N 19 16.09 Overcast OVC075 6.9 -4.5 44% 4 75.31 0.0
09 00:15 N 22 16.09 Overcast OVC070 7.3 -4.4 44% 4 75.29 0.0
08 23:55 N 17 16.09 Overcast OVC065 7.7 -4.3 43% 5 75.29 0.0
08 23:35 N 19 16.09 Overcast OVC065 8.1 -4.8 40% 5 75.29 0.0
08 23:15 NW 20 16.09 Overcast OVC070 8.4 -3.8 42% 6 75.26 0.0
08 22:55 NW 17 16.09 Overcast BKN070 BKN100 OVC110 8.7 -4.4 40% 6 75.26 0.0
08 22:35 NW 20 16.09 Overcast FEW065 SCT080 OVC100 9.2 -4.8 37% 7 75.26 0.0
08 22:15 NW 24 16.09 Mostly Cloudy FEW075 BKN110 9.6 -4.9 36% 7 75.26 0.0
08 21:55 NW 20 16.09 Mostly Cloudy FEW055 BKN075 9.4 -4.3 38% 7 75.23 0.0
08 21:35 NW 15 16.09 Overcast OVC080 9.4 -5 36% 7 75.21 0.0
08 21:15 NW 15 14.48 Mostly Cloudy BKN085 9 -3.9 40% 7 75.16 0.0
08 20:55 NW 15 12.87 A Few Clouds FEW130 9.5 -4.7 37% 8 75.13 0.0
08 20:35 NW 15 14.48 Partly Cloudy SCT130 9.9 -5.1 35% 8 75.13 0.0
08 20:15 NW 15 14.48 Fair CLR 10.1 -5.4 33% 75.13 0.0
08 19:55 NW 22 12.87 Fair CLR 11.5 -5.4 30% 75.13 0.0
08 19:35 NW 31 G 44 11.27 Fair CLR 11.9 -5.9 29% 75.16 0.0
08 19:15 NW 26 G 43 6.44 Fair with Haze CLR 13.1 -6.4 25% 75.16 0.0
08 18:55 NW 31 14.48 A Few Clouds FEW100 13.9 -6.7 15.3 12.8 24% 75.16 0.0
08 18:35 NW 39 G 46 14.48 A Few Clouds and Breezy FEW100 14 -7.1 23% 75.16 0.0
08 18:15 NW 37 G 50 14.48 A Few Clouds and Breezy FEW095 14.3 -6.8 23% 75.18 0.0
08 17:55 NW 30 14.48 A Few Clouds FEW100 14.6 -6.3 23% 75.18 0.0
08 17:35 NW 26 G 39 16.09 Fair CLR 14.7 -5.8 24% 75.18 0.0
08 17:15 NW 37 16.09 Fair and Breezy CLR 14.8 -5.4 25% 75.18 0.0
08 16:55 NW 30 G 43 14.48 A Few Clouds FEW080 14.8 -5 25% 75.18 0.0
08 16:35 NW 26 G 43 14.48 A Few Clouds FEW080 15 -5.2 25% 75.18 0.0
08 16:15 NW 30 G 44 16.09 Fair CLR 15 -4.4 26% 75.21 0.0
08 15:55 NW 24 G 39 16.09 Fair CLR 14.5 -4.7 26% 75.18 0.0
08 15:35 NW 30 G 39 16.09 Fair CLR 14.8 -5.5 24% 75.21 0.0
08 15:15 NW 30 G 44 16.09 Fair CLR 14.8 -6.4 23% 75.21 0.0
08 14:55 W 30 G 41 16.09 A Few Clouds FEW075 15 -4.1 27% 75.18 0.0
08 14:35 W 24 G 39 16.09 A Few Clouds FEW070 14.8 -3.6 28% 75.18 0.0
08 14:15 NW 28 G 41 16.09 Partly Cloudy SCT070 14.7 -2.1 32% 75.21 0.0
08 13:55 N 17 G 39 16.09 Fair CLR 14.1 -2.3 32% 75.18 0.0
08 13:35 NW 20 G 30 16.09 Fair CLR 13.2 -2.5 34% 75.21 0.0
08 13:15 N 26 G 46 16.09 Fair CLR 13.1 -2.4 34% 75.21 0.0
08 12:55 N 30 G 37 16.09 Fair CLR 12.8 -2.2 13.2 1.9 36% 75.21 0.0
08 12:35 N 22 16.09 Fair CLR 12.7 -2.2 36% 75.21 0.0
08 12:15 NW 24 G 30 16.09 Fair CLR 12.1 -2.1 37% 75.23 0.0
08 11:55 NW 20 16.09 Mostly Cloudy BKN090 10.7 -2.4 40% 75.23 0.0
08 11:35 NW 20 16.09 Overcast OVC085 10.3 -2.3 42% 75.23 0.0
08 11:15 W 20 16.09 Overcast OVC075 9.8 -3.1 41% 7 75.23 0.0
08 10:55 W 20 14.48 Overcast OVC080 10 -3.3 39% 8 75.23 0.0
08 10:35 W 20 14.48 Overcast OVC080 10.1 -3.9 37% 75.23 0.0
08 10:15 SW 19 16.09 Overcast SCT055 OVC080 10.1 -3.9 37% 75.23 0.0
08 09:55 SW 17 14.48 Overcast BKN050 BKN065 OVC080 9.7 -3.3 40% 8 75.23 0.0
08 09:35 SW 20 16.09 Overcast FEW049 SCT065 BKN080 OVC095 9.6 -3.2 41% 7 75.26 0.0
08 09:15 SW 17 16.09 Overcast OVC100 8.7 -2.9 44% 6 75.23 0.0
08 08:55 S 13 14.48 Overcast OVC090 7.1 -2.2 52% 5 75.26 0.0
08 08:35 S 15 16.09 Overcast OVC090 6.6 -2.4 53% 4 75.29 0.0
08 08:15 S 13 16.09 Overcast BKN090 OVC110 6 -2.4 55% 4 75.31 0.0
08 07:55 S 13 16.09 Overcast SCT080 OVC100 5.1 -3.3 55% 3 75.34 0.0
08 07:35 S 11 16.09 Overcast BKN085 OVC100 4.5 -2.7 60% 2 75.34 0.0
08 07:15 S 7 14.48 Overcast FEW075 OVC090 2.9 -1.3 74% 1 75.36 0.0
08 06:55 E 7 14.48 Overcast OVC085 1.4 -1 2.1 -1.5 84% -1 75.36 0.0
08 06:35 E 7 14.48 Overcast OVC085 1.3 -1.5 82% -1 75.36 0.0
08 06:15 Calm 16.09 Overcast BKN070 OVC090 1.4 -2.8 74% 75.36 0.0
08 05:55 Calm 14.48 Overcast BKN075 OVC090 0.6 -2.2 82% 75.39 0.0
08 05:35 SW 6 16.09 Mostly Cloudy SCT075 BKN090 BKN110 1 -2.9 75% 75.39 0.0
08 05:15 Calm 16.09 Mostly Cloudy FEW060 BKN075 BKN100 0.9 -3.3 74% 75.41 0.0
08 04:55 Calm 16.09 Overcast BKN070 OVC080 1.6 -4.2 66% 75.41 0.0
08 04:35 S 7 16.09 Overcast BKN075 OVC090 1.6 -4.7 63% -0 75.41 0.0
08 04:15 S 9 16.09 Overcast BKN080 OVC095 1.2 -4.8 65% -1 75.41 0.0
08 03:55 SW 9 14.48 Overcast BKN075 OVC095 -0.3 -4.6 73% -3 75.44 0.0
08 03:35 S 9 14.48 Mostly Cloudy BKN095 -0.2 -5.1 70% -3 75.44 0.0
08 03:15 SW 9 14.48 Fair CLR -1.3 -5.7 72% -4 75.44 0.0
08 02:55 SW 9 14.48 Fair CLR -0.4 -6 66% -3 75.44 0.0
08 02:35 SW 7 14.48 Fair CLR 0 -5.8 65% -2 75.46 0.0
08 02:15 SW 9 14.48 Fair CLR -0.3 -5.8 67% -3 75.46 0.0
08 01:55 SW 13 14.48 Fair CLR 0.3 -6.1 63% -3 75.46 0.0
08 01:35 SW 13 14.48 Fair CLR 0.6 -5.8 63% -3 75.49 0.0
08 01:15 SW 15 14.48 Fair CLR 1 -5.5 62% -3 75.49 0.0
08 00:55 SW 13 14.48 Fair CLR -0.1 -5.6 10.8 -0.9 67% -4 75.51 0.0
08 00:35 SW 13 14.48 Fair CLR -0.2 -5.4 68% -4 75.54 0.0
08 00:15 SW 11 14.48 Fair CLR -0.7 -5.1 72% -4 75.54 0.0
07 23:55 W 7 14.48 Fair CLR -0.1 -5.2 69% -2 75.57 0.0
07 23:35 W 7 12.87 Fair CLR 0.9 -6 60% -1 75.57 0.0
07 23:15 W 6 12.87 Fair CLR 1.5 -6.6 55% 75.57 0.0
07 22:55 SW 7 11.27 Fair CLR 1.1 -6.7 56% -1 75.57 0.0
07 22:35 Calm 14.48 Fair CLR 4 -7.6 43% 75.57 0.0
07 22:15 Calm 12.87 Fair CLR 4 -6.7 46% 75.57 0.0
07 21:55 W 6 14.48 Fair CLR 2.8 -6.3 52% 75.57 0.0
07 21:35 W 6 12.87 Fair CLR 4.3 -6.6 45% 75.59 0.0
07 21:15 W 6 12.87 Fair CLR 5.2 -6.5 43% 75.57 0.0
07 20:55 NW 9 11.27 Fair CLR 6.5 -5.8 41% 5 75.57 0.0
07 20:35 NW 13 11.27 Fair CLR 7 -5.5 41% 5 75.57 0.0
07 20:15 NW 15 12.87 Fair CLR 8.8 -5.9 35% 7 75.57 0.0
07 19:55 NW 20 11.27 Fair CLR 10.2 -6.5 31% 75.57 0.0
07 19:35 NW 17 11.27 Fair CLR 10.4 -6.3 31% 75.57 0.0
07 19:15 W 20 12.87 Fair CLR 10.7 -7.3 28% 75.57 0.0
07 18:55 W 15 12.87 Fair CLR 10.7 -7 11.2 7.4 28% 75.57 0.0
07 18:35 W 17 12.87 Fair CLR 10.8 -6.7 29% 75.59 0.0
07 18:15 NW 20 11.27 Fair CLR 10.7 -6.9 29% 75.59 0.0
07 17:55 W 19 12.87 A Few Clouds FEW070 10.7 -6.8 29% 75.62 0.0
07 17:35 W 15 12.87 Partly Cloudy SCT070 10.4 -7.1 29% 75.62 0.0
07 17:15 NW 17 14.48 Partly Cloudy SCT070 10.5 -6.3 30% 75.62 0.0
07 16:55 NW 24 G 37 14.48 A Few Clouds FEW070 10.5 -6.3 30% 75.64 0.0
07 16:35 NW 15 12.87 Partly Cloudy SCT070 9.7 -7.1 30% 8 75.64 0.0
07 16:15 NW 28 G 37 14.48 Mostly Cloudy BKN070 10.6 -6.5 30% 75.67 0.0
07 15:55 NW 26 14.48 Mostly Cloudy BKN070 9.9 -6.5 31% 7 75.67 0.0
07 15:35 NW 26 G 33 12.87 Mostly Cloudy BKN070 9.3 -6.7 32% 6 75.69 0.0
07 15:15 W 20 14.48 Partly Cloudy SCT070 8.9 -7.3 31% 6 75.69 0.0
Date Time (cdt) Wind (kph) Vis. (km) Weather Sky Cond. Air Dwpt Max. Min. Relative Humidity Wind Chill (°C) Heat Index (°C) altimeter (cm) sea level (mb) 1 hr 3 hr 6 hr
6 hour
Temperature (ºC) Pressure Precipitation (cm)